Terminal Aerodrome Forecast
Issued by NWS Albany, NY

Home | Current Version | Previous Version | Text Only | Print | Product List | Glossary On
Versions: 1 2 3 4 5 6 7 8 9 10 11 12 13 14 15 16 17 18 19 20 21 22 23
000
FTUS41 KALY 160904 AAB
TAFGFL
TAF AMD
KGFL 160904Z 1609/1706 VRB03KT P6SM VCSH SCT030 OVC050
      TEMPO 1609/1611 2SM -SN BR BKN030 OVC050
     FM161200 VRB03KT P6SM VCSH OVC030
      TEMPO 1612/1616 5SM -SN SCT015 OVC030
     FM161600 17005KT 2SM -SN BR OVC015=

USA.gov is the U.S. government's official web portal to all federal, state and local government web resources and services.